createdAt,value
2022-08-30T00:00:13.682Z,2.70
2022-08-30T00:01:14.412Z,2.40
2022-08-30T00:02:13.630Z,2.50
2022-08-30T00:03:13.702Z,2.50
2022-08-30T00:04:13.525Z,2.60
2022-08-30T00:05:13.487Z,2.40
2022-08-30T00:06:13.466Z,2.70
2022-08-30T00:07:13.413Z,2.50
2022-08-30T00:08:13.380Z,2.70
2022-08-30T00:09:13.342Z,2.70
2022-08-30T00:10:13.303Z,2.70
2022-08-30T00:11:13.265Z,2.60
2022-08-30T00:12:13.243Z,2.80
2022-08-30T00:13:13.246Z,2.50
2022-08-30T00:14:13.155Z,2.70
2022-08-30T00:15:13.118Z,2.80
2022-08-30T00:16:13.178Z,2.90
2022-08-30T00:17:13.040Z,2.40
2022-08-30T00:18:13.007Z,2.50
2022-08-30T00:19:12.984Z,2.70
2022-08-30T00:20:12.937Z,2.50
2022-08-30T00:21:12.919Z,2.60
2022-08-30T00:22:12.860Z,2.50
2022-08-30T00:23:12.929Z,2.60
2022-08-30T00:24:12.788Z,2.60
2022-08-30T00:25:12.749Z,2.60
2022-08-30T00:26:12.716Z,2.60
2022-08-30T00:27:12.685Z,2.60
2022-08-30T00:28:12.639Z,2.70
2022-08-30T00:29:12.601Z,2.70
2022-08-30T00:30:12.565Z,2.60
2022-08-30T00:31:13.549Z,2.50
2022-08-30T00:32:12.503Z,2.50
2022-08-30T00:33:12.460Z,2.80
2022-08-30T00:34:12.425Z,2.50
2022-08-30T00:35:12.379Z,2.50
2022-08-30T00:36:12.342Z,2.70
2022-08-30T00:37:12.310Z,2.60
2022-08-30T00:38:12.279Z,2.50
2022-08-30T00:39:12.234Z,2.50
2022-08-30T00:40:12.269Z,2.60
2022-08-30T00:41:12.161Z,2.60
2022-08-30T00:42:12.121Z,2.60
2022-08-30T00:43:13.922Z,3.00
2022-08-30T00:44:12.058Z,2.70
2022-08-30T00:45:12.010Z,2.40
2022-08-30T00:46:12.017Z,2.60
2022-08-30T00:47:11.935Z,2.70
2022-08-30T00:48:11.903Z,2.70
2022-08-30T00:49:11.865Z,2.60
2022-08-30T00:50:11.834Z,2.60
2022-08-30T00:51:11.791Z,2.50
2022-08-30T00:52:11.752Z,2.40
2022-08-30T00:53:11.714Z,2.70
2022-08-30T00:54:11.683Z,2.50
2022-08-30T00:55:11.646Z,2.70
2022-08-30T00:56:11.610Z,2.60
2022-08-30T00:57:11.595Z,2.50
2022-08-30T00:58:11.538Z,2.70
2022-08-30T00:59:11.500Z,2.70
2022-08-30T01:00:11.454Z,2.80
2022-08-30T01:01:11.502Z,2.70
2022-08-30T01:02:11.449Z,2.60
2022-08-30T01:03:11.353Z,2.90
2022-08-30T01:04:11.310Z,3.00
2022-08-30T01:05:11.273Z,2.80
2022-08-30T01:06:11.233Z,2.70
2022-08-30T01:07:11.210Z,2.50
2022-08-30T01:08:11.159Z,2.80
2022-08-30T01:09:11.122Z,2.90
2022-08-30T01:10:11.082Z,2.70
2022-08-30T01:11:11.048Z,2.80
2022-08-30T01:12:11.010Z,2.90
2022-08-30T01:13:10.988Z,2.80
2022-08-30T01:14:10.934Z,2.60
2022-08-30T01:15:10.898Z,2.70
2022-08-30T01:16:10.931Z,3.00
2022-08-30T01:17:10.823Z,2.60
2022-08-30T01:18:10.786Z,2.70
2022-08-30T01:19:10.763Z,2.90
2022-08-30T01:20:10.716Z,3.00
2022-08-30T01:21:10.675Z,3.10
2022-08-30T01:22:10.637Z,2.60
2022-08-30T01:23:10.602Z,2.80
2022-08-30T01:24:10.574Z,2.70
2022-08-30T01:25:10.532Z,2.80
2022-08-30T01:26:10.493Z,2.60
2022-08-30T01:27:10.452Z,3.00
2022-08-30T01:28:10.416Z,2.90
2022-08-30T01:29:10.391Z,2.90
2022-08-30T01:30:10.339Z,2.90
2022-08-30T01:31:10.359Z,3.20
2022-08-30T01:32:10.266Z,2.80
2022-08-30T01:33:10.576Z,2.60
2022-08-30T01:34:10.195Z,2.90
2022-08-30T01:35:10.173Z,2.80
2022-08-30T01:36:10.118Z,3.00
2022-08-30T01:37:10.088Z,3.00
2022-08-30T01:38:10.053Z,2.80
2022-08-30T01:39:10.011Z,2.80
2022-08-30T01:40:10.021Z,2.80
2022-08-30T01:41:09.944Z,2.90
2022-08-30T01:42:09.895Z,3.10
2022-08-30T01:43:09.871Z,3.00
2022-08-30T01:44:09.822Z,2.70
2022-08-30T01:45:09.788Z,2.60
2022-08-30T01:46:09.791Z,2.60
2022-08-30T01:47:09.723Z,3.00
2022-08-30T01:48:09.674Z,2.80
2022-08-30T01:49:09.636Z,3.00
2022-08-30T01:50:09.607Z,3.00
2022-08-30T01:51:09.567Z,3.00
2022-08-30T01:52:09.525Z,2.80
2022-08-30T01:53:09.489Z,2.80
2022-08-30T01:54:09.447Z,3.00
2022-08-30T01:55:09.422Z,2.90
2022-08-30T01:56:09.379Z,2.70
2022-08-30T01:57:09.342Z,2.90
2022-08-30T01:58:09.300Z,2.90
2022-08-30T01:59:09.265Z,2.90
2022-08-30T02:00:09.227Z,2.70
2022-08-30T02:01:09.222Z,3.00
2022-08-30T02:02:09.150Z,2.70
2022-08-30T02:03:09.112Z,2.90
2022-08-30T02:04:09.123Z,2.90
2022-08-30T02:05:09.041Z,2.90
2022-08-30T02:06:09.002Z,2.60
2022-08-30T02:07:08.975Z,2.80
2022-08-30T02:08:08.927Z,2.80
2022-08-30T02:09:08.892Z,2.80
2022-08-30T02:10:08.866Z,2.60
2022-08-30T02:11:08.818Z,3.30
2022-08-30T02:12:08.779Z,2.90
2022-08-30T02:13:08.770Z,3.00
2022-08-30T02:14:08.703Z,3.00
2022-08-30T02:15:08.675Z,2.70
2022-08-30T02:16:08.658Z,2.90
2022-08-30T02:17:08.593Z,2.80
2022-08-30T02:18:08.554Z,2.70
2022-08-30T02:19:08.523Z,2.90
2022-08-30T02:20:08.482Z,2.80
2022-08-30T02:21:08.444Z,2.70
2022-08-30T02:22:08.422Z,2.70
2022-08-30T02:23:08.378Z,2.90
2022-08-30T02:24:08.333Z,2.70
2022-08-30T02:25:11.234Z,2.70
2022-08-30T02:26:08.256Z,2.80
2022-08-30T02:27:08.234Z,2.50
2022-08-30T02:28:08.195Z,3.00
2022-08-30T02:29:08.146Z,2.80
2022-08-30T02:30:08.107Z,3.00
2022-08-30T02:31:08.136Z,3.10
2022-08-30T02:32:08.032Z,2.80
2022-08-30T02:33:07.998Z,2.90
2022-08-30T02:34:07.973Z,2.80
2022-08-30T02:35:07.927Z,2.80
2022-08-30T02:36:07.883Z,2.90
2022-08-30T02:37:07.848Z,3.10
2022-08-30T02:38:07.811Z,3.30
2022-08-30T02:39:07.783Z,3.30
2022-08-30T02:40:07.783Z,2.80
2022-08-30T02:41:07.700Z,3.00
2022-08-30T02:42:07.658Z,3.10
2022-08-30T02:43:07.622Z,3.00
2022-08-30T02:44:07.584Z,3.10
2022-08-30T02:45:07.566Z,3.10
2022-08-30T02:46:07.581Z,3.00
2022-08-30T02:47:07.471Z,3.00
2022-08-30T02:48:07.435Z,3.00
2022-08-30T02:49:32.763Z,3.10
2022-08-30T02:50:07.362Z,2.90
2022-08-30T02:51:07.332Z,2.70
2022-08-30T02:52:07.285Z,3.00
2022-08-30T02:53:07.250Z,3.20
2022-08-30T02:54:07.210Z,3.20
2022-08-30T02:55:07.172Z,3.00
2022-08-30T02:56:07.147Z,3.20
2022-08-30T02:57:07.098Z,2.90
2022-08-30T02:58:07.061Z,3.00
2022-08-30T02:59:07.027Z,2.90
2022-08-30T03:00:06.990Z,2.80
2022-08-30T03:01:07.022Z,3.30
2022-08-30T03:02:06.910Z,3.00
2022-08-30T03:03:06.875Z,2.90
2022-08-30T03:04:06.909Z,2.90
2022-08-30T03:05:06.801Z,2.70
2022-08-30T03:06:06.777Z,3.00
2022-08-30T03:07:06.724Z,3.10
2022-08-30T03:08:06.689Z,2.80
2022-08-30T03:09:06.650Z,3.00
2022-08-30T03:10:06.611Z,2.80
2022-08-30T03:11:06.577Z,3.00
2022-08-30T03:12:06.552Z,3.10
2022-08-30T03:13:06.503Z,2.90
2022-08-30T03:14:06.467Z,3.20
2022-08-30T03:15:06.426Z,2.80
2022-08-30T03:16:06.400Z,3.10
2022-08-30T03:17:06.349Z,3.00
2022-08-30T03:18:06.328Z,3.20
2022-08-30T03:19:06.274Z,2.80
2022-08-30T03:20:06.235Z,3.20
2022-08-30T03:21:06.200Z,3.00
2022-08-30T03:22:06.161Z,3.30
2022-08-30T03:23:06.123Z,3.40
2022-08-30T03:24:06.100Z,3.20
2022-08-30T03:25:06.062Z,3.30
2022-08-30T03:26:06.010Z,3.10
2022-08-30T03:27:05.981Z,3.40
2022-08-30T03:28:05.934Z,3.20
2022-08-30T03:29:05.899Z,3.30
2022-08-30T03:30:05.870Z,3.20
2022-08-30T03:31:05.826Z,3.20
2022-08-30T03:32:05.893Z,3.20
2022-08-30T03:33:05.748Z,3.10
2022-08-30T03:34:05.710Z,2.90
2022-08-30T03:35:05.672Z,3.10
2022-08-30T03:36:05.653Z,3.00
2022-08-30T03:37:05.598Z,3.10
2022-08-30T03:38:05.560Z,3.20
2022-08-30T03:39:05.522Z,3.10
2022-08-30T03:40:05.517Z,3.00
2022-08-30T03:41:05.450Z,3.20
2022-08-30T03:42:05.421Z,3.10
2022-08-30T03:43:05.449Z,3.40
2022-08-30T03:44:05.333Z,2.90
2022-08-30T03:45:05.300Z,3.00
2022-08-30T03:46:05.303Z,2.90
2022-08-30T03:47:05.234Z,3.30
2022-08-30T03:48:05.185Z,3.10
2022-08-30T03:49:05.177Z,3.20
2022-08-30T03:50:05.109Z,3.00
2022-08-30T03:51:06.064Z,3.20
2022-08-30T03:52:05.033Z,3.00
2022-08-30T03:53:05.006Z,3.00
2022-08-30T03:54:04.956Z,3.20
2022-08-30T03:55:04.921Z,3.00
2022-08-30T03:56:04.882Z,3.30
2022-08-30T03:57:04.893Z,2.90
2022-08-30T03:58:04.832Z,3.10
2022-08-30T03:59:04.785Z,3.30
2022-08-30T04:00:04.732Z,3.10
2022-08-30T04:01:04.754Z,3.20
2022-08-30T04:02:04.734Z,2.90
2022-08-30T04:03:04.619Z,3.40
2022-08-30T04:04:04.598Z,3.10
2022-08-30T04:05:04.545Z,3.30
2022-08-30T04:06:04.504Z,3.40
2022-08-30T04:07:04.470Z,3.20
2022-08-30T04:08:04.428Z,3.20
2022-08-30T04:09:04.394Z,3.10
2022-08-30T04:10:04.364Z,3.10
2022-08-30T04:11:05.053Z,3.30
2022-08-30T04:12:04.294Z,3.30
2022-08-30T04:13:04.246Z,3.40
2022-08-30T04:14:04.202Z,3.30
2022-08-30T04:15:04.248Z,4.50
2022-08-30T04:16:04.159Z,3.90
2022-08-30T04:17:04.091Z,3.60
2022-08-30T04:18:04.051Z,3.40
2022-08-30T04:19:04.015Z,3.80
2022-08-30T04:20:03.991Z,3.60
2022-08-30T04:21:03.939Z,3.80
2022-08-30T04:22:03.904Z,3.60
2022-08-30T04:23:03.861Z,3.30
2022-08-30T04:24:03.830Z,3.40
2022-08-30T04:25:03.797Z,3.40
2022-08-30T04:26:03.746Z,3.40
2022-08-30T04:27:03.726Z,3.70
2022-08-30T04:28:03.672Z,3.70
2022-08-30T04:29:03.635Z,3.80
2022-08-30T04:30:03.596Z,3.30
2022-08-30T04:31:03.560Z,3.40
2022-08-30T04:32:03.576Z,4.30
2022-08-30T04:33:03.484Z,3.60
2022-08-30T04:34:03.456Z,3.40
2022-08-30T04:35:03.408Z,3.30
2022-08-30T04:36:03.369Z,3.20
2022-08-30T04:37:03.333Z,3.00
2022-08-30T04:38:03.291Z,3.00
2022-08-30T04:39:03.258Z,3.60
2022-08-30T04:40:03.295Z,3.30
2022-08-30T04:41:03.181Z,4.10
2022-08-30T04:42:03.142Z,3.20
2022-08-30T04:43:03.106Z,4.00
2022-08-30T04:44:03.070Z,3.80
2022-08-30T04:45:03.030Z,7.10
2022-08-30T04:46:03.050Z,4.30
2022-08-30T04:47:02.956Z,3.60
2022-08-30T04:48:02.915Z,3.50
2022-08-30T04:49:02.881Z,3.40
2022-08-30T04:50:02.838Z,3.50
2022-08-30T04:51:02.802Z,3.50
2022-08-30T04:52:02.789Z,3.10
2022-08-30T04:53:02.732Z,3.20
2022-08-30T04:54:02.686Z,3.30
2022-08-30T04:55:02.648Z,3.20
2022-08-30T04:56:02.614Z,3.30
2022-08-30T04:57:02.574Z,3.40
2022-08-30T04:58:02.549Z,3.50
2022-08-30T04:59:02.501Z,3.50
2022-08-30T05:00:02.463Z,3.80
2022-08-30T05:01:11.944Z,3.40
2022-08-30T05:02:02.439Z,3.30
2022-08-30T05:03:02.349Z,4.00
2022-08-30T05:04:02.320Z,3.10
2022-08-30T05:05:02.268Z,3.40
2022-08-30T05:06:02.232Z,3.20
2022-08-30T05:07:02.200Z,3.40
2022-08-30T05:08:02.157Z,3.30
2022-08-30T05:09:02.128Z,3.40
2022-08-30T05:10:02.080Z,3.50
2022-08-30T05:11:02.044Z,3.10
2022-08-30T05:12:02.006Z,3.00
2022-08-30T05:13:01.964Z,3.30
2022-08-30T05:14:01.954Z,3.30
2022-08-30T05:15:01.917Z,3.00
2022-08-30T05:16:01.905Z,3.60
2022-08-30T05:17:01.816Z,3.00
2022-08-30T05:18:01.777Z,3.40
2022-08-30T05:19:01.750Z,3.40
2022-08-30T05:20:01.704Z,3.60
2022-08-30T05:21:01.663Z,3.60
2022-08-30T05:22:01.628Z,3.30
2022-08-30T05:23:01.589Z,3.20
2022-08-30T05:24:01.556Z,3.20
2022-08-30T05:25:01.529Z,3.20
2022-08-30T05:26:01.475Z,3.70
2022-08-30T05:27:01.439Z,3.10
2022-08-30T05:28:01.400Z,3.60
2022-08-30T05:29:01.362Z,3.20
2022-08-30T05:30:01.326Z,3.90
2022-08-30T05:31:01.343Z,3.50
2022-08-30T05:32:01.250Z,3.60
2022-08-30T05:33:01.211Z,3.60
2022-08-30T05:34:01.174Z,3.90
2022-08-30T05:35:01.153Z,3.80
2022-08-30T05:36:01.101Z,3.70
2022-08-30T05:37:01.060Z,3.50
2022-08-30T05:38:01.033Z,3.30
2022-08-30T05:39:01.235Z,3.60
2022-08-30T05:40:00.983Z,3.80
2022-08-30T05:41:04.101Z,3.70
2022-08-30T05:42:00.874Z,3.70
2022-08-30T05:43:00.835Z,3.90
2022-08-30T05:44:00.814Z,3.90
2022-08-30T05:45:00.762Z,3.70
2022-08-30T05:46:00.723Z,3.40
2022-08-30T05:47:00.698Z,3.60
2022-08-30T05:48:00.650Z,3.50
2022-08-30T05:49:00.615Z,3.40
2022-08-30T05:50:00.578Z,3.70
2022-08-30T05:51:00.540Z,3.80
2022-08-30T05:52:00.505Z,3.80
2022-08-30T05:53:00.475Z,3.70
2022-08-30T05:54:00.430Z,3.40
2022-08-30T05:55:00.399Z,3.50
2022-08-30T05:56:00.357Z,3.10
2022-08-30T05:57:00.320Z,3.30
2022-08-30T05:58:00.296Z,3.30
2022-08-30T05:59:00.260Z,3.50
2022-08-30T06:00:00.212Z,3.30
2022-08-30T06:01:00.180Z,3.40
2022-08-30T06:02:00.381Z,3.70
2022-08-30T06:03:00.211Z,3.40
2022-08-30T06:04:03.709Z,3.00
2022-08-30T06:05:00.032Z,3.20
2022-08-30T06:05:59.998Z,3.00
2022-08-30T06:06:59.960Z,3.30
2022-08-30T06:07:59.932Z,3.30
2022-08-30T06:08:59.892Z,3.10
2022-08-30T06:09:59.865Z,3.20
2022-08-30T06:10:59.822Z,2.90
2022-08-30T06:11:59.789Z,3.20
2022-08-30T06:12:59.754Z,2.80
2022-08-30T06:13:59.719Z,3.00
2022-08-30T06:14:59.681Z,3.10
2022-08-30T06:15:59.703Z,3.00
2022-08-30T06:16:59.665Z,2.80
2022-08-30T06:17:59.578Z,3.50
2022-08-30T06:18:59.543Z,3.00
2022-08-30T06:19:59.511Z,3.30
2022-08-30T06:20:59.480Z,3.10
2022-08-30T06:21:59.454Z,3.10
2022-08-30T06:22:59.412Z,3.20
2022-08-30T06:23:59.378Z,3.10
2022-08-30T06:24:59.359Z,3.20
2022-08-30T06:25:59.306Z,3.10
2022-08-30T06:26:59.274Z,2.80
2022-08-30T06:27:59.256Z,3.10
2022-08-30T06:28:59.205Z,3.10
2022-08-30T06:29:59.172Z,3.20
2022-08-30T06:30:59.188Z,3.10
2022-08-30T06:31:59.109Z,3.10
2022-08-30T06:32:59.072Z,3.30
2022-08-30T06:33:59.050Z,2.60
2022-08-30T06:34:59.001Z,3.00
2022-08-30T06:36:00.426Z,3.10
2022-08-30T06:36:58.935Z,3.20
2022-08-30T06:37:58.902Z,2.90
2022-08-30T06:38:58.868Z,3.20
2022-08-30T06:39:58.938Z,2.80
2022-08-30T06:40:58.801Z,3.00
2022-08-30T06:41:58.769Z,3.20
2022-08-30T06:42:58.735Z,3.10
2022-08-30T06:43:58.703Z,3.00
2022-08-30T06:44:58.671Z,2.70
2022-08-30T06:45:58.654Z,3.00
2022-08-30T06:46:58.634Z,2.80
2022-08-30T06:48:58.538Z,2.70
2022-08-30T06:49:58.506Z,2.90
2022-08-30T06:50:58.470Z,2.70
2022-08-30T06:51:58.449Z,3.10
2022-08-30T06:52:58.418Z,2.80
2022-08-30T06:53:58.372Z,3.00
2022-08-30T06:54:58.337Z,2.90
2022-08-30T06:55:58.307Z,2.90
2022-08-30T06:56:59.107Z,2.90
2022-08-30T06:57:58.241Z,2.90
2022-08-30T06:58:58.231Z,2.90
2022-08-30T06:59:58.170Z,3.00
2022-08-30T07:00:58.141Z,2.80
2022-08-30T07:01:58.154Z,2.90
2022-08-30T07:02:58.114Z,3.00
2022-08-30T07:03:58.042Z,2.70
2022-08-30T07:04:58.023Z,2.90
2022-08-30T07:05:57.978Z,2.90
2022-08-30T07:06:57.942Z,2.70
2022-08-30T07:07:57.918Z,2.90
2022-08-30T07:08:57.876Z,3.00
2022-08-30T07:09:57.843Z,2.80
2022-08-30T07:10:57.821Z,2.70
2022-08-30T07:11:57.778Z,3.10
2022-08-30T07:12:57.744Z,2.90
2022-08-30T07:13:57.711Z,2.90
2022-08-30T07:14:57.682Z,3.00
2022-08-30T07:15:57.684Z,2.90
2022-08-30T07:16:57.637Z,2.80
2022-08-30T07:17:57.581Z,3.00
2022-08-30T07:18:57.548Z,2.90
2022-08-30T07:19:57.519Z,2.70
2022-08-30T07:20:57.481Z,3.20
2022-08-30T07:21:57.452Z,2.60
2022-08-30T07:22:57.427Z,2.70
2022-08-30T07:23:57.382Z,2.80
2022-08-30T07:24:57.348Z,2.80
2022-08-30T07:25:57.318Z,2.90
2022-08-30T07:26:57.282Z,2.70
2022-08-30T07:27:57.254Z,2.80
2022-08-30T07:28:57.227Z,2.80
2022-08-30T07:29:57.183Z,2.90
2022-08-30T07:30:57.213Z,2.80
2022-08-30T07:31:57.117Z,2.80
2022-08-30T07:32:57.083Z,2.90
2022-08-30T07:33:57.052Z,2.60
2022-08-30T07:34:57.028Z,2.80
2022-08-30T07:35:56.984Z,2.90
2022-08-30T07:36:56.951Z,2.90
2022-08-30T07:37:56.916Z,2.90
2022-08-30T07:38:56.899Z,3.00
2022-08-30T07:39:56.919Z,2.90
2022-08-30T07:40:56.819Z,2.70
2022-08-30T07:41:56.788Z,3.00
2022-08-30T07:42:56.752Z,2.70
2022-08-30T07:43:56.720Z,3.00
2022-08-30T07:44:57.056Z,2.60
2022-08-30T07:45:56.704Z,2.80
2022-08-30T07:46:56.648Z,2.50
2022-08-30T07:47:56.589Z,3.10
2022-08-30T07:48:56.555Z,2.50
2022-08-30T07:49:56.529Z,2.70
2022-08-30T07:50:59.831Z,2.50
2022-08-30T07:51:56.458Z,2.70
2022-08-30T07:52:56.424Z,2.80
2022-08-30T07:53:56.390Z,3.00
2022-08-30T07:54:56.359Z,2.70
2022-08-30T07:55:56.324Z,2.60
2022-08-30T07:56:56.308Z,3.00
2022-08-30T07:57:56.306Z,2.80
2022-08-30T07:58:56.225Z,2.80
2022-08-30T07:59:56.194Z,2.80
2022-08-30T08:00:56.160Z,2.50
2022-08-30T08:01:56.160Z,2.60
2022-08-30T08:02:56.170Z,2.70
2022-08-30T08:03:56.066Z,2.90
2022-08-30T08:04:56.028Z,2.70
2022-08-30T08:05:56.004Z,2.50
2022-08-30T08:06:55.964Z,2.90
2022-08-30T08:07:55.941Z,2.70
2022-08-30T08:08:55.925Z,2.60
2022-08-30T08:09:55.867Z,2.50
2022-08-30T08:10:55.835Z,2.80
2022-08-30T08:11:55.803Z,2.40
2022-08-30T08:12:55.771Z,2.70
2022-08-30T08:13:55.736Z,2.70
2022-08-30T08:14:55.713Z,2.60
2022-08-30T08:15:55.716Z,2.50
2022-08-30T08:16:55.637Z,2.60
2022-08-30T08:17:55.604Z,2.70
2022-08-30T08:18:55.571Z,2.60
2022-08-30T08:19:55.553Z,2.60
2022-08-30T08:20:56.902Z,2.80
2022-08-30T08:22:04.112Z,2.80
2022-08-30T08:22:55.442Z,2.60
2022-08-30T08:23:55.409Z,2.90
2022-08-30T08:24:55.376Z,2.80
2022-08-30T08:25:55.357Z,2.60
2022-08-30T08:26:55.311Z,2.60
2022-08-30T08:27:55.279Z,2.60
2022-08-30T08:28:55.260Z,2.60
2022-08-30T08:29:55.214Z,2.90
2022-08-30T08:30:55.225Z,2.90
2022-08-30T08:31:55.149Z,2.80
2022-08-30T08:32:55.114Z,2.70
2022-08-30T08:33:55.129Z,2.60
2022-08-30T08:34:55.058Z,2.50
2022-08-30T08:35:55.015Z,2.70
2022-08-30T08:36:54.984Z,2.60
2022-08-30T08:37:54.953Z,2.50
2022-08-30T08:38:54.917Z,2.60
2022-08-30T08:39:54.901Z,2.60
2022-08-30T08:40:54.857Z,2.60
2022-08-30T08:41:54.821Z,2.70
2022-08-30T08:42:54.791Z,2.40
2022-08-30T08:43:54.764Z,2.50
2022-08-30T08:44:55.554Z,2.80
2022-08-30T08:45:54.711Z,2.70
2022-08-30T08:46:54.663Z,2.60
2022-08-30T08:47:54.628Z,2.70
2022-08-30T08:49:01.654Z,2.90
2022-08-30T08:49:54.574Z,2.80
2022-08-30T08:50:54.547Z,2.80
2022-08-30T08:51:54.500Z,2.80
2022-08-30T08:52:54.472Z,2.90
2022-08-30T08:53:54.434Z,3.00
2022-08-30T08:54:54.412Z,2.60
2022-08-30T08:55:54.371Z,2.30
2022-08-30T08:56:54.821Z,3.00
2022-08-30T08:57:55.751Z,2.80
2022-08-30T08:58:54.450Z,2.90
2022-08-30T08:59:54.240Z,2.80
2022-08-30T09:00:55.064Z,2.90
2022-08-30T09:01:54.293Z,3.00
2022-08-30T09:02:55.972Z,3.00
2022-08-30T09:03:54.108Z,2.60
2022-08-30T09:04:54.144Z,2.70
2022-08-30T09:05:54.041Z,2.80
2022-08-30T09:06:54.013Z,2.70
2022-08-30T09:07:53.986Z,2.80
2022-08-30T09:08:53.945Z,2.80
2022-08-30T09:09:53.924Z,2.60
2022-08-30T09:10:53.882Z,2.50
2022-08-30T09:11:53.848Z,2.70
2022-08-30T09:12:59.365Z,2.80
2022-08-30T09:13:53.784Z,2.70
2022-08-30T09:14:55.627Z,2.80
2022-08-30T09:15:55.227Z,2.90
2022-08-30T09:16:53.684Z,2.80
2022-08-30T09:17:53.719Z,2.80
2022-08-30T09:18:54.839Z,2.80
2022-08-30T09:19:53.612Z,2.70
2022-08-30T09:20:53.557Z,2.70
2022-08-30T09:21:53.523Z,2.90
2022-08-30T09:22:53.499Z,2.90
2022-08-30T09:23:53.462Z,2.70
2022-08-30T09:24:53.429Z,2.60
2022-08-30T09:25:53.405Z,2.50
2022-08-30T09:26:53.363Z,3.00
2022-08-30T09:27:53.330Z,2.80
2022-08-30T09:28:53.300Z,3.00
2022-08-30T09:29:53.276Z,2.70
2022-08-30T09:30:53.286Z,2.70
2022-08-30T09:32:10.104Z,2.50
2022-08-30T09:32:53.190Z,2.60
2022-08-30T09:33:53.139Z,2.70
2022-08-30T09:34:53.107Z,2.60
2022-08-30T09:35:54.153Z,2.60
2022-08-30T09:36:53.047Z,2.40
2022-08-30T09:37:53.022Z,2.70
2022-08-30T09:38:52.994Z,2.50
2022-08-30T09:39:52.950Z,2.60
2022-08-30T09:40:52.921Z,2.60
2022-08-30T09:41:52.888Z,2.40
2022-08-30T09:42:52.856Z,2.60
2022-08-30T09:43:52.825Z,2.80
2022-08-30T09:44:52.823Z,2.60
2022-08-30T09:45:52.811Z,2.30
2022-08-30T09:46:52.732Z,2.40
2022-08-30T09:47:52.700Z,2.60
2022-08-30T09:48:52.679Z,2.50
2022-08-30T09:49:52.638Z,2.50
2022-08-30T09:50:52.858Z,2.70
2022-08-30T09:51:52.571Z,2.60
2022-08-30T09:52:55.424Z,2.50
2022-08-30T09:54:16.743Z,2.50
2022-08-30T09:54:52.487Z,2.40
2022-08-30T09:55:52.443Z,2.50
2022-08-30T09:56:52.417Z,2.70
2022-08-30T09:57:52.396Z,2.60
2022-08-30T09:58:52.348Z,2.40
2022-08-30T09:59:52.316Z,2.20
2022-08-30T10:00:52.344Z,2.40
2022-08-30T10:01:52.251Z,2.30
2022-08-30T10:02:52.236Z,2.60
2022-08-30T10:03:52.187Z,2.40
2022-08-30T10:04:52.157Z,2.40
2022-08-30T10:05:52.149Z,2.50
2022-08-30T10:06:52.167Z,2.20
2022-08-30T10:07:52.075Z,2.10
2022-08-30T10:08:52.033Z,2.40
2022-08-30T10:09:51.996Z,2.40
2022-08-30T10:10:51.976Z,2.40
2022-08-30T10:11:51.931Z,2.30
2022-08-30T10:12:51.910Z,2.50
2022-08-30T10:13:51.883Z,2.20
2022-08-30T10:14:51.846Z,2.40
2022-08-30T10:15:51.809Z,2.40
2022-08-30T10:16:51.780Z,2.30
2022-08-30T10:17:51.747Z,2.50
2022-08-30T10:18:51.728Z,2.40
2022-08-30T10:19:51.682Z,2.20
2022-08-30T10:20:51.655Z,2.20
2022-08-30T10:21:51.624Z,2.20
2022-08-30T10:22:51.590Z,2.20
2022-08-30T10:23:51.558Z,2.40
2022-08-30T10:24:51.542Z,2.50
2022-08-30T10:25:51.495Z,2.60
2022-08-30T10:26:51.464Z,2.40
2022-08-30T10:27:51.432Z,2.20
2022-08-30T10:28:52.317Z,2.50
2022-08-30T10:29:51.380Z,2.30
2022-08-30T10:30:51.338Z,2.60
2022-08-30T10:31:51.304Z,2.40
2022-08-30T10:32:51.274Z,2.60
2022-08-30T10:33:51.245Z,2.40
2022-08-30T10:34:51.215Z,2.50
2022-08-30T10:35:51.192Z,2.30
2022-08-30T10:36:51.147Z,2.30
2022-08-30T10:37:51.364Z,2.50
2022-08-30T10:38:51.081Z,2.40
2022-08-30T10:39:51.051Z,2.30
2022-08-30T10:40:51.060Z,2.50
2022-08-30T10:41:50.996Z,2.50
2022-08-30T10:42:50.955Z,2.50
2022-08-30T10:43:52.644Z,2.50
2022-08-30T10:44:50.889Z,2.20
2022-08-30T10:45:50.871Z,2.50
2022-08-30T10:46:50.837Z,2.30
2022-08-30T10:47:50.791Z,2.30
2022-08-30T10:48:50.762Z,2.00
2022-08-30T10:49:50.728Z,2.40
2022-08-30T10:50:50.697Z,2.30
2022-08-30T10:51:50.672Z,2.40
2022-08-30T10:52:50.634Z,2.70
2022-08-30T10:53:50.598Z,2.10
2022-08-30T10:54:50.565Z,2.10
2022-08-30T10:55:50.534Z,2.60
2022-08-30T10:56:50.503Z,2.30
2022-08-30T10:57:50.481Z,2.30
2022-08-30T10:58:50.437Z,2.30
2022-08-30T10:59:50.407Z,2.30
2022-08-30T11:02:22.442Z,2.20
2022-08-30T11:03:22.397Z,2.30
2022-08-30T11:04:22.367Z,2.20
2022-08-30T11:05:22.332Z,2.00
2022-08-30T11:06:22.303Z,2.30
2022-08-30T11:07:22.282Z,2.40
2022-08-30T11:08:23.000Z,2.30
2022-08-30T11:09:22.203Z,2.20
2022-08-30T11:10:22.173Z,2.20
2022-08-30T11:11:22.140Z,2.20
2022-08-30T11:12:22.110Z,2.10
2022-08-30T11:13:22.089Z,2.10
2022-08-30T11:14:25.593Z,2.00
2022-08-30T11:15:22.011Z,2.30
2022-08-30T11:16:21.988Z,2.40
2022-08-30T11:17:21.948Z,2.60
2022-08-30T11:18:21.922Z,2.10
2022-08-30T11:19:21.900Z,2.10
2022-08-30T11:20:21.868Z,2.40
2022-08-30T11:21:21.821Z,2.30
2022-08-30T11:22:21.790Z,2.80
2022-08-30T11:23:21.759Z,2.40
2022-08-30T11:24:21.731Z,2.50
2022-08-30T11:25:21.707Z,2.30
2022-08-30T11:26:21.677Z,2.10
2022-08-30T11:27:21.631Z,2.50
2022-08-30T11:28:22.082Z,2.20
2022-08-30T11:29:21.565Z,2.40
2022-08-30T11:30:21.542Z,2.20
2022-08-30T11:31:21.517Z,2.20
2022-08-30T11:32:21.475Z,2.10
2022-08-30T11:33:21.442Z,2.30
2022-08-30T11:34:21.409Z,2.30
2022-08-30T11:35:21.377Z,2.50
2022-08-30T11:36:21.356Z,2.40
2022-08-30T11:37:21.311Z,2.40
2022-08-30T11:38:21.281Z,2.20
2022-08-30T11:39:21.253Z,2.10
2022-08-30T11:40:21.218Z,2.30
2022-08-30T11:41:21.197Z,2.50
2022-08-30T11:42:21.152Z,2.30
2022-08-30T11:43:21.121Z,2.20
2022-08-30T11:44:21.155Z,2.10
2022-08-30T11:45:21.064Z,2.40
2022-08-30T11:46:21.127Z,2.40
2022-08-30T11:47:21.004Z,2.30
2022-08-30T11:48:20.966Z,2.10
2022-08-30T11:49:20.938Z,2.40
2022-08-30T11:50:20.898Z,2.20
2022-08-30T11:51:20.863Z,2.20
2022-08-30T11:52:27.983Z,2.30
2022-08-30T11:53:20.800Z,2.30
2022-08-30T11:54:20.772Z,2.10
2022-08-30T11:55:20.736Z,2.20
2022-08-30T11:56:20.705Z,2.30
2022-08-30T11:57:20.681Z,2.20
2022-08-30T11:58:20.643Z,2.40
2022-08-30T11:59:20.615Z,1.90
2022-08-30T12:00:20.577Z,2.40
2022-08-30T12:01:41.943Z,2.20
2022-08-30T12:02:20.599Z,2.20
2022-08-30T12:03:20.746Z,2.20
2022-08-30T12:04:20.449Z,2.30
2022-08-30T12:05:20.417Z,2.30
2022-08-30T12:06:20.386Z,2.30
2022-08-30T12:07:20.362Z,2.20
2022-08-30T12:08:20.323Z,2.30
2022-08-30T12:09:20.302Z,2.10
2022-08-30T12:10:20.261Z,2.00
2022-08-30T12:11:20.226Z,2.40
2022-08-30T12:12:20.196Z,2.30
2022-08-30T12:13:20.163Z,2.30
2022-08-30T12:14:20.143Z,2.30
2022-08-30T12:15:20.100Z,2.20
2022-08-30T12:16:20.136Z,2.10
2022-08-30T12:17:20.036Z,2.10
2022-08-30T12:18:20.194Z,2.40
2022-08-30T12:19:19.972Z,2.10
2022-08-30T12:20:19.961Z,2.30
2022-08-30T12:21:19.911Z,2.20
2022-08-30T12:22:19.881Z,2.60
2022-08-30T12:23:19.847Z,2.00
2022-08-30T12:24:19.818Z,2.40
2022-08-30T12:25:21.366Z,2.10
2022-08-30T12:26:20.024Z,2.20
2022-08-30T12:27:19.723Z,2.40
2022-08-30T12:28:19.692Z,2.20
2022-08-30T12:29:19.658Z,2.30
2022-08-30T12:30:19.627Z,2.50
2022-08-30T12:31:19.645Z,2.20
2022-08-30T12:32:19.568Z,2.10
2022-08-30T12:33:19.534Z,2.40
2022-08-30T12:34:19.502Z,2.10
2022-08-30T12:35:19.470Z,2.10
2022-08-30T12:36:19.451Z,2.30
2022-08-30T12:37:19.408Z,2.30
2022-08-30T12:38:19.382Z,2.20
2022-08-30T12:39:19.350Z,2.10
2022-08-30T12:40:19.353Z,2.20
2022-08-30T12:41:19.356Z,2.10
2022-08-30T12:42:19.253Z,2.10
2022-08-30T12:43:19.247Z,2.20
2022-08-30T12:44:19.189Z,2.10
2022-08-30T12:45:19.157Z,2.30
2022-08-30T12:46:19.199Z,2.40
2022-08-30T12:47:19.095Z,2.10
2022-08-30T12:48:19.817Z,2.30
2022-08-30T12:49:19.031Z,2.10
2022-08-30T12:50:19.001Z,2.20
2022-08-30T12:51:18.996Z,2.10
2022-08-30T12:52:18.964Z,2.10
2022-08-30T12:53:18.903Z,2.50
2022-08-30T12:54:18.881Z,2.20
2022-08-30T12:55:19.182Z,2.30
2022-08-30T12:56:26.959Z,2.00
2022-08-30T12:57:34.965Z,2.10
2022-08-30T12:58:18.849Z,2.20
2022-08-30T12:59:18.735Z,2.20
2022-08-30T13:00:18.684Z,1.90
2022-08-30T13:01:18.802Z,2.30
2022-08-30T13:02:20.507Z,2.00
2022-08-30T13:03:23.107Z,2.10
2022-08-30T13:04:18.562Z,2.30
2022-08-30T13:05:18.551Z,2.10
2022-08-30T13:06:18.493Z,2.10
2022-08-30T13:07:18.472Z,2.30
2022-08-30T13:08:18.836Z,2.00
2022-08-30T13:09:18.408Z,2.10
2022-08-30T13:10:19.575Z,2.20
2022-08-30T13:11:18.347Z,2.50
2022-08-30T13:12:18.305Z,2.00
2022-08-30T13:13:18.272Z,2.20
2022-08-30T13:14:18.247Z,2.10
2022-08-30T13:15:18.208Z,2.40
2022-08-30T13:16:18.273Z,2.30
2022-08-30T13:17:18.145Z,2.50
2022-08-30T13:18:18.377Z,2.10
2022-08-30T13:19:18.090Z,2.30
2022-08-30T13:20:18.051Z,2.10